Milford, MA

12:19 PM EST on December 07, 2016 (GMT -0500)
Congress St | | Change Station

Elev 394 ft 42.15 °N, 71.53 °W | Updated 5 hours ago

Overcast
Overcast
33.4 °F
Feels Like 33.4 °F
N
0.0
Wind Variable Wind from North
Gusts 0.0 mph

Today
High -- | Low -- °F
--% Chance of Precip.
Yesterday
High -- | Low -- °F
Precip. -- in
Pressure 30.02 in
Visibility 10.0 miles
Clouds Overcast 700 ft
Dew Point 32.1 °F
Humidity 95%
Rainfall in
Snow Depth Not available.
7:01 AM 4:14 PM
First Quarter, 54% visible
METAR KSFZ 071656Z AUTO 00000KT 10SM OVC007 04/02 A2995 RMK AO2 SLP166 T00390022
Pressure 30.02 in
Visibility 10.0 miles
Clouds Overcast 700 ft
Dew Point 32.1 °F
Humidity 95%
Rainfall in
Snow Depth Not available.
7:01 AM 4:14 PM
First Quarter, 54% visible
METAR KSFZ 071656Z AUTO 00000KT 10SM OVC007 04/02 A2995 RMK AO2 SLP166 T00390022

10-Day Weather Forecast

Almanac

Astronomy

Dec. 07, 2016 Rise Set
Actual Time
Civil Twilight
Nautical Twilight
Astronomical Twilight
Moon
Length of Visible Light
Length of Day
Tomorrow will be .
, % of the Moon is Illuminated

Today's Extremes

State Highs State Lows

Community

WunderPhotos

Upload Photos

1,956,151 photos uploaded!

WunderBlog® & News

Nearby

Air Quality

  Air Quality AQ Index Pollutant
Not available.

Snow Depth

Station Depth Elevation

Earthquake Activity

City Distance Mag. Time & Date
Minimum magnitude displayed is 2.5.

Coastal Water Temperatures

Place Temperature

Stations

Nearby Weather Stations

Station Location Temp. Windchill Dew Point Humidity Wind Precip. Elev Updated Type
                   

Watches & Warnings

There are currently no watches in effect.